sensor_id;sensor_type;location;lat;lon;timestamp;P1;durP1;ratioP1;P2;durP2;ratioP2
35990;SDS011;22064;42.672;23.282;2023-04-06T00:02:14;15.85;;;7.78;;
35990;SDS011;22064;42.672;23.282;2023-04-06T00:04:40;15.20;;;7.28;;
35990;SDS011;22064;42.672;23.282;2023-04-06T00:07:07;20.90;;;8.98;;
35990;SDS011;22064;42.672;23.282;2023-04-06T00:09:33;17.85;;;8.88;;
35990;SDS011;22064;42.672;23.282;2023-04-06T00:12:00;15.65;;;7.60;;
35990;SDS011;22064;42.672;23.282;2023-04-06T00:14:26;17.52;;;8.40;;
35990;SDS011;22064;42.672;23.282;2023-04-06T00:16:52;17.08;;;8.27;;
35990;SDS011;22064;42.672;23.282;2023-04-06T00:19:18;16.60;;;7.32;;
35990;SDS011;22064;42.672;23.282;2023-04-06T00:21:44;18.83;;;8.45;;
35990;SDS011;22064;42.672;23.282;2023-04-06T00:24:10;18.77;;;8.82;;
35990;SDS011;22064;42.672;23.282;2023-04-06T00:26:36;19.75;;;8.93;;
35990;SDS011;22064;42.672;23.282;2023-04-06T00:29:02;17.20;;;7.57;;
35990;SDS011;22064;42.672;23.282;2023-04-06T00:31:28;17.98;;;7.68;;
35990;SDS011;22064;42.672;23.282;2023-04-06T00:33:54;16.45;;;7.95;;
35990;SDS011;22064;42.672;23.282;2023-04-06T00:36:20;18.52;;;8.60;;
35990;SDS011;22064;42.672;23.282;2023-04-06T00:38:46;18.25;;;7.35;;
35990;SDS011;22064;42.672;23.282;2023-04-06T00:41:12;16.23;;;8.10;;
35990;SDS011;22064;42.672;23.282;2023-04-06T00:43:39;16.08;;;8.50;;
35990;SDS011;22064;42.672;23.282;2023-04-06T00:46:05;17.67;;;8.90;;
35990;SDS011;22064;42.672;23.282;2023-04-06T00:48:31;20.23;;;9.18;;
35990;SDS011;22064;42.672;23.282;2023-04-06T00:50:59;17.65;;;7.60;;
35990;SDS011;22064;42.672;23.282;2023-04-06T00:53:25;16.08;;;7.95;;
35990;SDS011;22064;42.672;23.282;2023-04-06T00:55:51;16.77;;;7.45;;
35990;SDS011;22064;42.672;23.282;2023-04-06T00:58:17;13.70;;;7.03;;
35990;SDS011;22064;42.672;23.282;2023-04-06T01:00:49;16.48;;;8.15;;
35990;SDS011;22064;42.672;23.282;2023-04-06T01:03:18;18.83;;;8.93;;
35990;SDS011;22064;42.672;23.282;2023-04-06T01:05:44;17.70;;;7.47;;
35990;SDS011;22064;42.672;23.282;2023-04-06T01:08:18;19.55;;;8.90;;
35990;SDS011;22064;42.672;23.282;2023-04-06T01:10:45;17.08;;;7.28;;
35990;SDS011;22064;42.672;23.282;2023-04-06T01:13:24;18.77;;;8.48;;
35990;SDS011;22064;42.672;23.282;2023-04-06T01:15:56;16.85;;;8.38;;
35990;SDS011;22064;42.672;23.282;2023-04-06T01:18:44;17.27;;;8.02;;
35990;SDS011;22064;42.672;23.282;2023-04-06T01:21:20;16.50;;;7.88;;
35990;SDS011;22064;42.672;23.282;2023-04-06T01:24:09;16.95;;;8.55;;
35990;SDS011;22064;42.672;23.282;2023-04-06T01:29:29;17.55;;;7.93;;
35990;SDS011;22064;42.672;23.282;2023-04-06T01:31:55;20.92;;;9.02;;
35990;SDS011;22064;42.672;23.282;2023-04-06T01:34:21;18.65;;;8.32;;
35990;SDS011;22064;42.672;23.282;2023-04-06T01:36:47;19.58;;;8.93;;
35990;SDS011;22064;42.672;23.282;2023-04-06T01:39:31;20.50;;;9.05;;
35990;SDS011;22064;42.672;23.282;2023-04-06T01:42:00;19.92;;;8.68;;
35990;SDS011;22064;42.672;23.282;2023-04-06T01:44:26;20.30;;;8.52;;
35990;SDS011;22064;42.672;23.282;2023-04-06T01:47:03;18.63;;;8.20;;
35990;SDS011;22064;42.672;23.282;2023-04-06T01:49:30;17.65;;;7.22;;
35990;SDS011;22064;42.672;23.282;2023-04-06T01:51:57;16.02;;;7.00;;
35990;SDS011;22064;42.672;23.282;2023-04-06T01:54:23;15.07;;;7.47;;
35990;SDS011;22064;42.672;23.282;2023-04-06T01:57:15;16.25;;;7.32;;
35990;SDS011;22064;42.672;23.282;2023-04-06T01:59:46;14.70;;;7.20;;
35990;SDS011;22064;42.672;23.282;2023-04-06T02:02:20;14.98;;;7.10;;
35990;SDS011;22064;42.672;23.282;2023-04-06T02:04:55;17.10;;;7.32;;
35990;SDS011;22064;42.672;23.282;2023-04-06T02:07:22;14.57;;;7.40;;
35990;SDS011;22064;42.672;23.282;2023-04-06T02:09:48;16.23;;;6.80;;
35990;SDS011;22064;42.672;23.282;2023-04-06T02:12:22;19.30;;;8.27;;
35990;SDS011;22064;42.672;23.282;2023-04-06T02:14:49;15.88;;;7.55;;
35990;SDS011;22064;42.672;23.282;2023-04-06T02:17:15;13.15;;;7.03;;
35990;SDS011;22064;42.672;23.282;2023-04-06T02:19:41;15.88;;;7.38;;
35990;SDS011;22064;42.672;23.282;2023-04-06T02:22:07;15.38;;;7.00;;
35990;SDS011;22064;42.672;23.282;2023-04-06T02:24:34;15.70;;;7.50;;
35990;SDS011;22064;42.672;23.282;2023-04-06T02:27:01;18.13;;;7.18;;
35990;SDS011;22064;42.672;23.282;2023-04-06T02:29:27;16.05;;;7.50;;
35990;SDS011;22064;42.672;23.282;2023-04-06T02:31:53;16.73;;;7.90;;
35990;SDS011;22064;42.672;23.282;2023-04-06T02:34:20;16.95;;;7.55;;
35990;SDS011;22064;42.672;23.282;2023-04-06T02:36:49;17.10;;;7.53;;
35990;SDS011;22064;42.672;23.282;2023-04-06T02:39:15;17.98;;;7.93;;
35990;SDS011;22064;42.672;23.282;2023-04-06T02:41:41;16.58;;;6.95;;
35990;SDS011;22064;42.672;23.282;2023-04-06T02:44:08;16.60;;;7.50;;
35990;SDS011;22064;42.672;23.282;2023-04-06T02:46:41;16.20;;;7.28;;
35990;SDS011;22064;42.672;23.282;2023-04-06T02:49:07;18.70;;;7.22;;
35990;SDS011;22064;42.672;23.282;2023-04-06T02:51:34;14.80;;;7.30;;
35990;SDS011;22064;42.672;23.282;2023-04-06T02:54:15;19.67;;;7.55;;
35990;SDS011;22064;42.672;23.282;2023-04-06T02:56:41;15.82;;;7.47;;
35990;SDS011;22064;42.672;23.282;2023-04-06T02:59:07;14.23;;;6.85;;
35990;SDS011;22064;42.672;23.282;2023-04-06T03:01:34;19.90;;;8.80;;
35990;SDS011;22064;42.672;23.282;2023-04-06T03:04:03;19.15;;;8.30;;
35990;SDS011;22064;42.672;23.282;2023-04-06T03:06:29;18.90;;;7.20;;
35990;SDS011;22064;42.672;23.282;2023-04-06T03:09:01;17.90;;;7.72;;
35990;SDS011;22064;42.672;23.282;2023-04-06T03:11:28;19.00;;;8.00;;
35990;SDS011;22064;42.672;23.282;2023-04-06T03:13:55;16.90;;;7.75;;
35990;SDS011;22064;42.672;23.282;2023-04-06T03:16:21;15.95;;;8.00;;
35990;SDS011;22064;42.672;23.282;2023-04-06T03:18:47;16.85;;;7.97;;
35990;SDS011;22064;42.672;23.282;2023-04-06T03:21:13;17.40;;;7.45;;
35990;SDS011;22064;42.672;23.282;2023-04-06T03:23:47;20.23;;;8.27;;
35990;SDS011;22064;42.672;23.282;2023-04-06T03:26:16;17.83;;;7.80;;
35990;SDS011;22064;42.672;23.282;2023-04-06T03:28:42;18.10;;;7.93;;
35990;SDS011;22064;42.672;23.282;2023-04-06T03:31:08;17.00;;;7.85;;
35990;SDS011;22064;42.672;23.282;2023-04-06T03:33:40;15.80;;;8.27;;
35990;SDS011;22064;42.672;23.282;2023-04-06T03:36:09;16.15;;;7.30;;
35990;SDS011;22064;42.672;23.282;2023-04-06T03:38:39;14.02;;;7.15;;
35990;SDS011;22064;42.672;23.282;2023-04-06T03:41:10;16.13;;;7.80;;
35990;SDS011;22064;42.672;23.282;2023-04-06T03:43:38;16.92;;;7.35;;
35990;SDS011;22064;42.672;23.282;2023-04-06T03:46:04;13.80;;;6.75;;
35990;SDS011;22064;42.672;23.282;2023-04-06T03:48:30;17.17;;;7.13;;
35990;SDS011;22064;42.672;23.282;2023-04-06T03:51:00;16.25;;;8.13;;
35990;SDS011;22064;42.672;23.282;2023-04-06T03:53:26;18.30;;;7.93;;
35990;SDS011;22064;42.672;23.282;2023-04-06T03:55:52;16.75;;;8.13;;
35990;SDS011;22064;42.672;23.282;2023-04-06T03:58:20;17.10;;;7.43;;
35990;SDS011;22064;42.672;23.282;2023-04-06T04:00:46;16.40;;;7.10;;
35990;SDS011;22064;42.672;23.282;2023-04-06T04:03:12;14.70;;;7.38;;
35990;SDS011;22064;42.672;23.282;2023-04-06T04:05:38;17.02;;;7.68;;
35990;SDS011;22064;42.672;23.282;2023-04-06T04:08:04;15.50;;;7.65;;
35990;SDS011;22064;42.672;23.282;2023-04-06T04:10:30;16.30;;;7.40;;
35990;SDS011;22064;42.672;23.282;2023-04-06T04:12:56;15.25;;;7.32;;
35990;SDS011;22064;42.672;23.282;2023-04-06T04:15:22;17.67;;;7.40;;
35990;SDS011;22064;42.672;23.282;2023-04-06T04:17:48;14.15;;;7.38;;
35990;SDS011;22064;42.672;23.282;2023-04-06T04:20:16;18.00;;;7.20;;
35990;SDS011;22064;42.672;23.282;2023-04-06T04:22:42;19.02;;;7.93;;
35990;SDS011;22064;42.672;23.282;2023-04-06T04:25:09;17.08;;;7.07;;
35990;SDS011;22064;42.672;23.282;2023-04-06T04:27:41;16.70;;;6.85;;
35990;SDS011;22064;42.672;23.282;2023-04-06T04:30:07;14.40;;;7.55;;
35990;SDS011;22064;42.672;23.282;2023-04-06T04:32:33;17.70;;;7.57;;
35990;SDS011;22064;42.672;23.282;2023-04-06T04:35:03;16.40;;;7.85;;
35990;SDS011;22064;42.672;23.282;2023-04-06T04:37:36;19.00;;;8.18;;
35990;SDS011;22064;42.672;23.282;2023-04-06T04:40:03;15.60;;;7.70;;
35990;SDS011;22064;42.672;23.282;2023-04-06T04:42:35;18.40;;;7.72;;
35990;SDS011;22064;42.672;23.282;2023-04-06T04:45:04;16.23;;;7.13;;
35990;SDS011;22064;42.672;23.282;2023-04-06T04:47:35;16.77;;;7.40;;
35990;SDS011;22064;42.672;23.282;2023-04-06T04:50:02;17.13;;;7.53;;
35990;SDS011;22064;42.672;23.282;2023-04-06T04:52:29;18.05;;;8.27;;
35990;SDS011;22064;42.672;23.282;2023-04-06T04:55:15;17.73;;;7.75;;
35990;SDS011;22064;42.672;23.282;2023-04-06T04:57:46;17.17;;;8.00;;
35990;SDS011;22064;42.672;23.282;2023-04-06T05:00:12;15.43;;;7.45;;
35990;SDS011;22064;42.672;23.282;2023-04-06T05:02:41;17.75;;;9.07;;
35990;SDS011;22064;42.672;23.282;2023-04-06T05:05:14;18.25;;;9.35;;
35990;SDS011;22064;42.672;23.282;2023-04-06T05:07:41;19.77;;;8.60;;
35990;SDS011;22064;42.672;23.282;2023-04-06T05:10:12;18.35;;;8.18;;
35990;SDS011;22064;42.672;23.282;2023-04-06T05:12:48;17.13;;;8.48;;
35990;SDS011;22064;42.672;23.282;2023-04-06T05:15:14;17.23;;;8.27;;
35990;SDS011;22064;42.672;23.282;2023-04-06T05:17:41;18.27;;;8.15;;
35990;SDS011;22064;42.672;23.282;2023-04-06T05:20:10;19.77;;;9.27;;
35990;SDS011;22064;42.672;23.282;2023-04-06T05:22:44;19.05;;;8.45;;
35990;SDS011;22064;42.672;23.282;2023-04-06T05:25:10;20.35;;;8.40;;
35990;SDS011;22064;42.672;23.282;2023-04-06T05:27:37;18.75;;;8.55;;
35990;SDS011;22064;42.672;23.282;2023-04-06T05:30:09;20.17;;;9.00;;
35990;SDS011;22064;42.672;23.282;2023-04-06T05:32:41;19.30;;;9.23;;
35990;SDS011;22064;42.672;23.282;2023-04-06T05:35:08;18.75;;;8.52;;
35990;SDS011;22064;42.672;23.282;2023-04-06T05:37:35;21.35;;;9.07;;
35990;SDS011;22064;42.672;23.282;2023-04-06T05:40:01;18.83;;;9.27;;
35990;SDS011;22064;42.672;23.282;2023-04-06T05:42:38;19.25;;;8.65;;
35990;SDS011;22064;42.672;23.282;2023-04-06T05:45:10;19.48;;;8.80;;
35990;SDS011;22064;42.672;23.282;2023-04-06T05:47:42;19.88;;;9.20;;
35990;SDS011;22064;42.672;23.282;2023-04-06T05:50:21;18.70;;;8.60;;
35990;SDS011;22064;42.672;23.282;2023-04-06T05:52:48;19.67;;;9.77;;
35990;SDS011;22064;42.672;23.282;2023-04-06T05:57:48;20.88;;;9.57;;
35990;SDS011;22064;42.672;23.282;2023-04-06T06:00:17;21.25;;;9.35;;
35990;SDS011;22064;42.672;23.282;2023-04-06T06:02:52;21.55;;;9.73;;
35990;SDS011;22064;42.672;23.282;2023-04-06T06:05:23;23.65;;;10.25;;
35990;SDS011;22064;42.672;23.282;2023-04-06T06:07:50;20.35;;;9.48;;
35990;SDS011;22064;42.672;23.282;2023-04-06T06:10:16;22.00;;;10.57;;
35990;SDS011;22064;42.672;23.282;2023-04-06T06:12:42;20.38;;;9.23;;
35990;SDS011;22064;42.672;23.282;2023-04-06T06:15:08;23.95;;;11.20;;
35990;SDS011;22064;42.672;23.282;2023-04-06T06:17:39;22.08;;;9.95;;
35990;SDS011;22064;42.672;23.282;2023-04-06T06:20:08;21.23;;;9.63;;
35990;SDS011;22064;42.672;23.282;2023-04-06T06:22:35;21.77;;;9.98;;
35990;SDS011;22064;42.672;23.282;2023-04-06T06:25:02;22.75;;;10.77;;
35990;SDS011;22064;42.672;23.282;2023-04-06T06:27:28;18.65;;;8.80;;
35990;SDS011;22064;42.672;23.282;2023-04-06T06:29:54;20.27;;;9.32;;
35990;SDS011;22064;42.672;23.282;2023-04-06T06:32:22;19.95;;;9.85;;
35990;SDS011;22064;42.672;23.282;2023-04-06T06:34:51;20.48;;;8.98;;
35990;SDS011;22064;42.672;23.282;2023-04-06T06:37:18;20.35;;;9.85;;
35990;SDS011;22064;42.672;23.282;2023-04-06T06:39:44;20.80;;;10.15;;
35990;SDS011;22064;42.672;23.282;2023-04-06T06:42:10;21.27;;;10.48;;
35990;SDS011;22064;42.672;23.282;2023-04-06T06:44:47;22.13;;;10.02;;
35990;SDS011;22064;42.672;23.282;2023-04-06T06:47:13;23.38;;;10.20;;
35990;SDS011;22064;42.672;23.282;2023-04-06T06:49:39;22.35;;;10.15;;
35990;SDS011;22064;42.672;23.282;2023-04-06T06:52:05;21.58;;;9.63;;
35990;SDS011;22064;42.672;23.282;2023-04-06T06:54:31;19.50;;;8.82;;
35990;SDS011;22064;42.672;23.282;2023-04-06T06:56:58;18.20;;;8.98;;
35990;SDS011;22064;42.672;23.282;2023-04-06T06:59:25;20.58;;;9.18;;
35990;SDS011;22064;42.672;23.282;2023-04-06T07:01:52;17.65;;;8.60;;
35990;SDS011;22064;42.672;23.282;2023-04-06T07:04:18;23.17;;;9.93;;
35990;SDS011;22064;42.672;23.282;2023-04-06T07:06:45;21.08;;;9.07;;
35990;SDS011;22064;42.672;23.282;2023-04-06T07:09:11;17.23;;;7.85;;
35990;SDS011;22064;42.672;23.282;2023-04-06T07:11:37;22.33;;;10.57;;
35990;SDS011;22064;42.672;23.282;2023-04-06T07:14:04;21.25;;;9.50;;
35990;SDS011;22064;42.672;23.282;2023-04-06T07:16:31;20.15;;;8.57;;
35990;SDS011;22064;42.672;23.282;2023-04-06T07:18:56;18.50;;;9.20;;
35990;SDS011;22064;42.672;23.282;2023-04-06T07:21:22;20.17;;;9.45;;
35990;SDS011;22064;42.672;23.282;2023-04-06T07:23:48;19.98;;;8.60;;
35990;SDS011;22064;42.672;23.282;2023-04-06T07:26:16;19.02;;;9.30;;
35990;SDS011;22064;42.672;23.282;2023-04-06T07:28:42;19.02;;;10.10;;
35990;SDS011;22064;42.672;23.282;2023-04-06T07:31:09;20.50;;;10.18;;
35990;SDS011;22064;42.672;23.282;2023-04-06T07:33:35;20.83;;;9.38;;
35990;SDS011;22064;42.672;23.282;2023-04-06T07:36:01;17.38;;;8.43;;
35990;SDS011;22064;42.672;23.282;2023-04-06T07:38:28;22.27;;;9.45;;
35990;SDS011;22064;42.672;23.282;2023-04-06T07:40:54;22.38;;;10.50;;
35990;SDS011;22064;42.672;23.282;2023-04-06T07:43:20;22.67;;;10.45;;
35990;SDS011;22064;42.672;23.282;2023-04-06T07:45:47;22.80;;;10.50;;
35990;SDS011;22064;42.672;23.282;2023-04-06T07:48:15;21.27;;;9.57;;
35990;SDS011;22064;42.672;23.282;2023-04-06T07:50:41;19.10;;;8.90;;
35990;SDS011;22064;42.672;23.282;2023-04-06T07:53:08;24.33;;;12.95;;
35990;SDS011;22064;42.672;23.282;2023-04-06T07:55:35;19.20;;;9.23;;
35990;SDS011;22064;42.672;23.282;2023-04-06T07:58:01;22.90;;;12.20;;
35990;SDS011;22064;42.672;23.282;2023-04-06T08:00:27;23.20;;;12.88;;
35990;SDS011;22064;42.672;23.282;2023-04-06T08:02:53;24.25;;;12.27;;
35990;SDS011;22064;42.672;23.282;2023-04-06T08:05:20;25.40;;;10.90;;
35990;SDS011;22064;42.672;23.282;2023-04-06T08:07:46;19.45;;;9.98;;
35990;SDS011;22064;42.672;23.282;2023-04-06T08:10:12;21.48;;;10.98;;
35990;SDS011;22064;42.672;23.282;2023-04-06T08:12:38;24.65;;;11.82;;
35990;SDS011;22064;42.672;23.282;2023-04-06T08:15:04;21.50;;;10.57;;
35990;SDS011;22064;42.672;23.282;2023-04-06T08:17:31;24.83;;;12.05;;
35990;SDS011;22064;42.672;23.282;2023-04-06T08:19:59;23.55;;;11.55;;
35990;SDS011;22064;42.672;23.282;2023-04-06T08:22:26;18.08;;;9.93;;
35990;SDS011;22064;42.672;23.282;2023-04-06T08:24:52;18.73;;;9.50;;
35990;SDS011;22064;42.672;23.282;2023-04-06T08:27:18;19.77;;;9.18;;
35990;SDS011;22064;42.672;23.282;2023-04-06T08:29:44;21.75;;;10.40;;
35990;SDS011;22064;42.672;23.282;2023-04-06T08:32:10;20.75;;;10.27;;
35990;SDS011;22064;42.672;23.282;2023-04-06T08:34:36;18.58;;;8.55;;
35990;SDS011;22064;42.672;23.282;2023-04-06T08:37:02;18.10;;;8.48;;
35990;SDS011;22064;42.672;23.282;2023-04-06T08:39:28;17.05;;;8.55;;
35990;SDS011;22064;42.672;23.282;2023-04-06T08:41:56;18.85;;;8.13;;
35990;SDS011;22064;42.672;23.282;2023-04-06T08:44:23;21.85;;;9.30;;
35990;SDS011;22064;42.672;23.282;2023-04-06T08:46:49;18.08;;;8.88;;
35990;SDS011;22064;42.672;23.282;2023-04-06T08:49:16;15.88;;;7.10;;
35990;SDS011;22064;42.672;23.282;2023-04-06T08:51:42;17.20;;;8.23;;
35990;SDS011;22064;42.672;23.282;2023-04-06T08:54:08;19.60;;;8.38;;
35990;SDS011;22064;42.672;23.282;2023-04-06T08:56:37;18.35;;;9.75;;
35990;SDS011;22064;42.672;23.282;2023-04-06T08:59:04;17.25;;;8.50;;
35990;SDS011;22064;42.672;23.282;2023-04-06T09:01:33;19.77;;;9.00;;
35990;SDS011;22064;42.672;23.282;2023-04-06T09:04:04;19.27;;;9.13;;
35990;SDS011;22064;42.672;23.282;2023-04-06T09:06:36;17.35;;;8.73;;
35990;SDS011;22064;42.672;23.282;2023-04-06T09:09:03;18.70;;;9.90;;
35990;SDS011;22064;42.672;23.282;2023-04-06T09:11:29;20.67;;;9.52;;
35990;SDS011;22064;42.672;23.282;2023-04-06T09:14:06;20.77;;;8.95;;
35990;SDS011;22064;42.672;23.282;2023-04-06T09:16:38;20.23;;;9.95;;
35990;SDS011;22064;42.672;23.282;2023-04-06T09:19:06;21.42;;;9.80;;
35990;SDS011;22064;42.672;23.282;2023-04-06T09:21:33;23.00;;;10.40;;
35990;SDS011;22064;42.672;23.282;2023-04-06T09:24:00;18.98;;;9.68;;
35990;SDS011;22064;42.672;23.282;2023-04-06T09:26:27;18.23;;;7.93;;
35990;SDS011;22064;42.672;23.282;2023-04-06T09:28:54;17.20;;;8.30;;
35990;SDS011;22064;42.672;23.282;2023-04-06T09:31:25;19.73;;;8.82;;
35990;SDS011;22064;42.672;23.282;2023-04-06T09:33:56;17.77;;;8.48;;
35990;SDS011;22064;42.672;23.282;2023-04-06T09:36:32;22.00;;;9.52;;
35990;SDS011;22064;42.672;23.282;2023-04-06T09:39:01;18.27;;;8.77;;
35990;SDS011;22064;42.672;23.282;2023-04-06T09:41:32;21.05;;;8.98;;
35990;SDS011;22064;42.672;23.282;2023-04-06T09:46:32;20.45;;;9.50;;
35990;SDS011;22064;42.672;23.282;2023-04-06T09:49:06;17.63;;;8.35;;
35990;SDS011;22064;42.672;23.282;2023-04-06T09:51:37;20.15;;;8.98;;
35990;SDS011;22064;42.672;23.282;2023-04-06T09:54:05;21.50;;;9.65;;
35990;SDS011;22064;42.672;23.282;2023-04-06T09:59:14;17.42;;;8.25;;
35990;SDS011;22064;42.672;23.282;2023-04-06T10:02:02;18.58;;;9.38;;
35990;SDS011;22064;42.672;23.282;2023-04-06T10:04:43;14.93;;;7.70;;
35990;SDS011;22064;42.672;23.282;2023-04-06T10:07:13;16.95;;;7.80;;
35990;SDS011;22064;42.672;23.282;2023-04-06T10:09:41;17.27;;;7.60;;
35990;SDS011;22064;42.672;23.282;2023-04-06T10:12:10;16.23;;;8.32;;
35990;SDS011;22064;42.672;23.282;2023-04-06T10:14:38;16.55;;;8.13;;
35990;SDS011;22064;42.672;23.282;2023-04-06T10:17:06;15.70;;;7.18;;
35990;SDS011;22064;42.672;23.282;2023-04-06T10:19:44;17.60;;;8.32;;
35990;SDS011;22064;42.672;23.282;2023-04-06T10:22:18;19.45;;;9.20;;
35990;SDS011;22064;42.672;23.282;2023-04-06T10:24:58;19.73;;;9.65;;
35990;SDS011;22064;42.672;23.282;2023-04-06T10:27:27;22.45;;;10.70;;
35990;SDS011;22064;42.672;23.282;2023-04-06T10:29:55;20.15;;;9.43;;
35990;SDS011;22064;42.672;23.282;2023-04-06T10:32:34;20.40;;;9.80;;
35990;SDS011;22064;42.672;23.282;2023-04-06T10:35:08;20.10;;;9.65;;
35990;SDS011;22064;42.672;23.282;2023-04-06T10:40:27;19.05;;;9.45;;
35990;SDS011;22064;42.672;23.282;2023-04-06T10:42:54;15.57;;;8.40;;
35990;SDS011;22064;42.672;23.282;2023-04-06T10:45:23;16.30;;;8.35;;
35990;SDS011;22064;42.672;23.282;2023-04-06T10:47:53;22.00;;;11.38;;
35990;SDS011;22064;42.672;23.282;2023-04-06T10:50:20;20.52;;;9.85;;
35990;SDS011;22064;42.672;23.282;2023-04-06T10:52:47;18.60;;;8.90;;
35990;SDS011;22064;42.672;23.282;2023-04-06T10:55:25;20.45;;;9.68;;
35990;SDS011;22064;42.672;23.282;2023-04-06T10:57:52;17.52;;;9.10;;
35990;SDS011;22064;42.672;23.282;2023-04-06T11:00:19;18.63;;;9.27;;
35990;SDS011;22064;42.672;23.282;2023-04-06T11:02:46;18.80;;;8.75;;
35990;SDS011;22064;42.672;23.282;2023-04-06T11:05:13;18.20;;;10.05;;
35990;SDS011;22064;42.672;23.282;2023-04-06T11:07:40;21.13;;;10.52;;
35990;SDS011;22064;42.672;23.282;2023-04-06T11:10:07;18.40;;;9.43;;
35990;SDS011;22064;42.672;23.282;2023-04-06T11:12:34;19.27;;;10.25;;
35990;SDS011;22064;42.672;23.282;2023-04-06T11:15:00;16.73;;;8.40;;
35990;SDS011;22064;42.672;23.282;2023-04-06T11:17:32;16.25;;;8.50;;
35990;SDS011;22064;42.672;23.282;2023-04-06T11:20:02;20.73;;;9.73;;
35990;SDS011;22064;42.672;23.282;2023-04-06T11:22:30;16.98;;;8.48;;
35990;SDS011;22064;42.672;23.282;2023-04-06T11:25:06;16.52;;;9.02;;
35990;SDS011;22064;42.672;23.282;2023-04-06T11:27:33;18.10;;;10.10;;
35990;SDS011;22064;42.672;23.282;2023-04-06T11:30:01;16.23;;;8.75;;
35990;SDS011;22064;42.672;23.282;2023-04-06T11:32:28;19.27;;;10.38;;
35990;SDS011;22064;42.672;23.282;2023-04-06T11:34:57;19.15;;;8.80;;
35990;SDS011;22064;42.672;23.282;2023-04-06T11:37:25;17.15;;;8.65;;
35990;SDS011;22064;42.672;23.282;2023-04-06T11:39:53;20.73;;;9.30;;
35990;SDS011;22064;42.672;23.282;2023-04-06T11:42:24;14.85;;;7.90;;
35990;SDS011;22064;42.672;23.282;2023-04-06T11:44:53;20.65;;;8.63;;
35990;SDS011;22064;42.672;23.282;2023-04-06T11:47:26;20.98;;;9.88;;
35990;SDS011;22064;42.672;23.282;2023-04-06T11:49:53;18.85;;;9.73;;
35990;SDS011;22064;42.672;23.282;2023-04-06T11:52:20;17.70;;;8.50;;
35990;SDS011;22064;42.672;23.282;2023-04-06T11:54:51;20.00;;;9.65;;
35990;SDS011;22064;42.672;23.282;2023-04-06T11:57:18;19.77;;;10.10;;
35990;SDS011;22064;42.672;23.282;2023-04-06T11:59:45;18.88;;;9.43;;
35990;SDS011;22064;42.672;23.282;2023-04-06T12:02:12;17.20;;;9.18;;
35990;SDS011;22064;42.672;23.282;2023-04-06T12:04:38;19.00;;;9.23;;
35990;SDS011;22064;42.672;23.282;2023-04-06T12:07:04;18.10;;;9.15;;
35990;SDS011;22064;42.672;23.282;2023-04-06T12:09:31;15.77;;;8.75;;
35990;SDS011;22064;42.672;23.282;2023-04-06T12:11:57;14.82;;;8.27;;
35990;SDS011;22064;42.672;23.282;2023-04-06T12:14:23;17.10;;;9.30;;
35990;SDS011;22064;42.672;23.282;2023-04-06T12:16:49;18.35;;;9.15;;
35990;SDS011;22064;42.672;23.282;2023-04-06T12:19:15;18.30;;;9.90;;
35990;SDS011;22064;42.672;23.282;2023-04-06T12:21:41;16.85;;;9.10;;
35990;SDS011;22064;42.672;23.282;2023-04-06T12:24:08;15.25;;;8.45;;
35990;SDS011;22064;42.672;23.282;2023-04-06T12:26:34;19.80;;;10.13;;
35990;SDS011;22064;42.672;23.282;2023-04-06T12:29:02;17.17;;;8.45;;
35990;SDS011;22064;42.672;23.282;2023-04-06T12:31:35;18.85;;;9.75;;
35990;SDS011;22064;42.672;23.282;2023-04-06T12:34:02;20.38;;;9.85;;
35990;SDS011;22064;42.672;23.282;2023-04-06T12:36:28;15.48;;;8.48;;
35990;SDS011;22064;42.672;23.282;2023-04-06T12:38:55;18.73;;;8.75;;
35990;SDS011;22064;42.672;23.282;2023-04-06T12:41:21;14.32;;;7.75;;
35990;SDS011;22064;42.672;23.282;2023-04-06T12:43:48;15.43;;;7.20;;
35990;SDS011;22064;42.672;23.282;2023-04-06T12:46:15;15.52;;;7.65;;
35990;SDS011;22064;42.672;23.282;2023-04-06T12:48:42;17.77;;;8.55;;
35990;SDS011;22064;42.672;23.282;2023-04-06T12:51:08;16.05;;;8.43;;
35990;SDS011;22064;42.672;23.282;2023-04-06T12:53:34;14.60;;;6.70;;
35990;SDS011;22064;42.672;23.282;2023-04-06T12:56:02;14.35;;;7.78;;
35990;SDS011;22064;42.672;23.282;2023-04-06T12:58:28;13.93;;;7.10;;
35990;SDS011;22064;42.672;23.282;2023-04-06T13:00:55;16.20;;;8.55;;
35990;SDS011;22064;42.672;23.282;2023-04-06T13:03:28;13.98;;;6.95;;
35990;SDS011;22064;42.672;23.282;2023-04-06T13:05:54;16.45;;;8.60;;
35990;SDS011;22064;42.672;23.282;2023-04-06T13:08:20;15.05;;;7.43;;
35990;SDS011;22064;42.672;23.282;2023-04-06T13:10:46;16.05;;;7.95;;
35990;SDS011;22064;42.672;23.282;2023-04-06T13:13:16;14.18;;;7.47;;
35990;SDS011;22064;42.672;23.282;2023-04-06T13:15:43;15.68;;;8.30;;
35990;SDS011;22064;42.672;23.282;2023-04-06T13:18:10;17.73;;;8.80;;
35990;SDS011;22064;42.672;23.282;2023-04-06T13:20:36;17.83;;;9.63;;
35990;SDS011;22064;42.672;23.282;2023-04-06T13:23:02;15.35;;;7.22;;
35990;SDS011;22064;42.672;23.282;2023-04-06T13:25:29;16.27;;;8.05;;
35990;SDS011;22064;42.672;23.282;2023-04-06T13:27:55;16.65;;;9.38;;
35990;SDS011;22064;42.672;23.282;2023-04-06T13:30:21;16.45;;;8.88;;
35990;SDS011;22064;42.672;23.282;2023-04-06T13:32:47;15.32;;;7.60;;
35990;SDS011;22064;42.672;23.282;2023-04-06T13:35:13;17.55;;;9.00;;
35990;SDS011;22064;42.672;23.282;2023-04-06T13:37:40;21.77;;;10.15;;
35990;SDS011;22064;42.672;23.282;2023-04-06T13:40:06;16.88;;;8.77;;
35990;SDS011;22064;42.672;23.282;2023-04-06T13:42:32;20.38;;;9.48;;
35990;SDS011;22064;42.672;23.282;2023-04-06T13:45:00;15.90;;;8.27;;
35990;SDS011;22064;42.672;23.282;2023-04-06T13:47:27;15.75;;;8.77;;
35990;SDS011;22064;42.672;23.282;2023-04-06T13:49:53;17.17;;;9.02;;
35990;SDS011;22064;42.672;23.282;2023-04-06T13:52:20;17.05;;;8.55;;
35990;SDS011;22064;42.672;23.282;2023-04-06T13:54:46;18.73;;;8.80;;
35990;SDS011;22064;42.672;23.282;2023-04-06T13:57:14;16.77;;;8.15;;
35990;SDS011;22064;42.672;23.282;2023-04-06T13:59:40;20.77;;;9.85;;
35990;SDS011;22064;42.672;23.282;2023-04-06T14:02:08;18.75;;;9.80;;
35990;SDS011;22064;42.672;23.282;2023-04-06T14:07:02;16.92;;;8.55;;
35990;SDS011;22064;42.672;23.282;2023-04-06T14:09:29;18.30;;;8.93;;
35990;SDS011;22064;42.672;23.282;2023-04-06T14:11:55;15.25;;;8.18;;
35990;SDS011;22064;42.672;23.282;2023-04-06T14:14:22;16.75;;;7.93;;
35990;SDS011;22064;42.672;23.282;2023-04-06T14:16:49;17.00;;;8.85;;
35990;SDS011;22064;42.672;23.282;2023-04-06T14:19:15;17.95;;;8.52;;
35990;SDS011;22064;42.672;23.282;2023-04-06T14:21:46;15.45;;;8.40;;
35990;SDS011;22064;42.672;23.282;2023-04-06T14:24:14;13.70;;;6.85;;
35990;SDS011;22064;42.672;23.282;2023-04-06T14:26:40;15.77;;;7.90;;
35990;SDS011;22064;42.672;23.282;2023-04-06T14:31:36;16.95;;;8.10;;
35990;SDS011;22064;42.672;23.282;2023-04-06T14:34:02;18.02;;;8.63;;
35990;SDS011;22064;42.672;23.282;2023-04-06T14:36:30;18.77;;;9.38;;
35990;SDS011;22064;42.672;23.282;2023-04-06T14:39:05;20.00;;;9.27;;
35990;SDS011;22064;42.672;23.282;2023-04-06T14:41:32;17.48;;;8.13;;
35990;SDS011;22064;42.672;23.282;2023-04-06T14:43:59;18.70;;;8.70;;
35990;SDS011;22064;42.672;23.282;2023-04-06T14:46:25;16.92;;;8.30;;